Time;durP1;ratioP1;P1;durP2;ratioP2;P2;SDS_P1;SDS_P2;PMS_P1;PMS_P2;Temp;Humidity;BMP_temperature;BMP_pressure;BME280_temperature;BME280_humidity;BME280_pressure;Samples;Min_cycle;Max_cycle;Signal;HPM_P1;HPM_P2
2022/10/04 00:02:12;;;;;;;2.10;0.77;;;;;;;10.20;85.42;99236.75;5097840;28;20243;-59
2022/10/04 00:05:06;;;;;;;1.67;0.70;;;;;;;10.23;85.57;99229.53;5090801;28;20110;-59
2022/10/04 00:07:56;;;;;;;3.17;0.77;;;;;;;10.24;85.38;99235.63;5104453;28;20044;-59
2022/10/04 00:10:41;;;;;;;4.22;1.15;;;;;;;10.27;85.08;99232.81;5116814;27;20522;-58
2022/10/04 00:13:27;;;;;;;1.23;0.60;;;;;;;10.25;85.55;99239.09;5104771;27;20074;-59
2022/10/04 00:16:21;;;;;;;2.78;0.82;;;;;;;10.25;85.55;99231.25;5106584;28;20040;-60
2022/10/04 00:19:14;;;;;;;2.92;0.80;;;;;;;10.23;85.83;99228.72;5111958;27;20797;-59
2022/10/04 00:22:07;;;;;;;2.03;0.85;;;;;;;10.22;85.82;99235.72;5107357;27;20090;-59
2022/10/04 00:25:06;;;;;;;4.05;0.82;;;;;;;10.22;86.17;99235.72;5124414;27;20031;-59
2022/10/04 00:28:15;;;;;;;3.25;1.00;;;;;;;10.24;86.24;99240.88;5118452;27;20043;-58
2022/10/04 00:31:15;;;;;;;5.65;0.90;;;;;;;10.25;86.49;99247.78;5115425;27;20032;-59
2022/10/04 00:34:06;;;;;;;2.58;0.80;;;;;;;10.39;85.97;99236.50;5104628;27;20399;-61
2022/10/04 00:36:52;;;;;;;1.70;0.73;;;;;;;10.43;85.66;99230.13;5108339;28;20386;-59
2022/10/04 00:39:40;;;;;;;3.30;0.90;;;;;;;10.45;85.44;99238.72;5100443;27;20131;-59
2022/10/04 00:42:35;;;;;;;1.85;0.85;;;;;;;10.46;85.50;99231.72;5094481;28;20111;-59
2022/10/04 00:45:40;;;;;;;1.85;0.55;;;;;;;10.47;85.92;99234.28;5110138;28;20134;-59
2022/10/04 00:48:31;;;;;;;3.10;0.70;;;;;;;10.43;86.05;99243.22;5100015;28;20039;-59
2022/10/04 00:51:22;;;;;;;;;;;;;;;10.47;86.09;99239.53;5117766;28;20035;-59
2022/10/04 00:54:16;;;;;;;3.58;0.82;;;;;;;10.47;86.16;99226.44;5117300;28;20040;-59
2022/10/04 00:57:32;;;;;;;1.70;0.75;;;;;;;10.53;85.97;99232.19;5102465;28;20028;-59
2022/10/04 01:00:18;;;;;;;1.85;0.82;;;;;;;10.49;86.38;99233.34;5103287;28;20391;-58
2022/10/04 01:03:09;;;;;;;2.33;0.70;;;;;;;10.43;86.58;99240.59;5108061;28;20075;-58
2022/10/04 01:05:58;;;;;;;1.48;0.60;;;;;;;10.41;87.23;99242.47;5110454;28;20399;-59
2022/10/04 01:08:48;;;;;;;1.30;0.70;;;;;;;10.41;87.36;99241.63;5118177;28;20048;-59
2022/10/04 01:11:43;;;;;;;2.15;0.70;;;;;;;10.46;87.03;99237.81;5090178;28;20037;-60
2022/10/04 01:14:48;;;;;;;2.92;0.60;;;;;;;10.41;87.49;99237.22;5112691;27;20058;-58
2022/10/04 01:17:33;;;;;;;1.77;0.63;;;;;;;10.43;87.10;99240.59;5106298;28;20474;-59
2022/10/04 01:20:47;;;;;;;3.20;0.70;;;;;;;10.38;87.42;99234.78;5115468;27;20039;-59
2022/10/04 01:23:31;;;;;;;2.58;0.85;;;;;;;10.46;87.27;99231.72;5102505;27;20143;-60
2022/10/04 01:26:28;;;;;;;4.40;0.80;;;;;;;10.47;87.09;99222.97;5117435;27;20432;-58
2022/10/04 01:29:17;;;;;;;2.72;0.98;;;;;;;10.44;87.10;99223.13;5100288;27;20040;-59
2022/10/04 01:32:01;;;;;;;2.33;0.88;;;;;;;10.42;87.36;99224.97;5111807;27;20551;-59
2022/10/04 01:34:46;;;;;;;3.42;1.10;;;;;;;10.44;87.09;99220.50;5100424;27;20040;-58
2022/10/04 01:37:30;;;;;;;1.63;0.73;;;;;;;10.40;86.98;99221.59;5106290;27;20528;-58
2022/10/04 01:40:15;;;;;;;2.05;0.60;;;;;;;10.43;87.21;99218.81;5116315;27;20054;-58
2022/10/04 01:43:06;;;;;;;3.17;0.73;;;;;;;10.38;87.48;99229.56;5109476;27;20093;-59
2022/10/04 01:45:57;;;;;;;3.42;0.85;;;;;;;10.39;87.42;99222.53;5123992;27;20043;-58
2022/10/04 01:48:43;;;;;;;1.33;0.65;;;;;;;10.41;87.18;99215.44;5104354;27;20526;-59
2022/10/04 01:51:36;;;;;;;3.17;0.75;;;;;;;10.39;87.67;99220.78;5107665;27;20069;-59
2022/10/04 01:54:31;;;;;;;2.65;0.70;;;;;;;10.40;87.45;99221.59;5102363;27;20365;-58
2022/10/04 01:57:23;;;;;;;1.88;0.55;;;;;;;10.42;87.53;99214.50;5105282;27;20106;-59
2022/10/04 02:00:12;;;;;;;1.45;0.40;;;;;;;10.38;87.62;99218.25;5100066;27;20058;-60
2022/10/04 02:03:07;;;;;;;0.98;0.57;;;;;;;10.41;87.62;99215.44;5104353;27;20489;-59
2022/10/04 02:05:58;;;;;;;3.03;0.55;;;;;;;10.47;86.83;99204.63;5110388;28;20080;-60
2022/10/04 02:08:49;;;;;;;3.67;0.70;;;;;;;10.42;87.17;99204.88;5122180;27;20054;-58
2022/10/04 02:11:36;;;;;;;1.65;0.73;;;;;;;10.50;86.69;99209.66;5114679;27;20115;-59
2022/10/04 02:14:24;;;;;;;2.38;0.70;;;;;;;10.53;86.64;99206.84;5117238;27;20078;-59
2022/10/04 02:17:11;;;;;;;1.98;0.60;;;;;;;10.55;86.41;99199.75;5098076;27;20042;-59
2022/10/04 02:19:58;;;;;;;2.80;0.73;;;;;;;10.61;86.03;99205.56;5114295;27;20079;-59
2022/10/04 02:22:45;;;;;;;3.72;0.73;;;;;;;10.56;86.24;99201.44;5109864;27;20205;-59
2022/10/04 02:25:31;;;;;;;3.78;1.13;;;;;;;10.54;86.89;99199.84;5112443;27;20039;-59
2022/10/04 02:28:17;;;;;;;1.92;0.63;;;;;;;10.53;86.78;99199.00;5118871;27;20054;-59
2022/10/04 02:34:09;;;;;;;1.92;0.80;;;;;;;10.55;86.83;99193.66;5103694;28;20120;-60
2022/10/04 02:36:54;;;;;;;1.92;0.55;;;;;;;10.57;86.93;99189.19;5095744;28;20121;-60
2022/10/04 02:39:46;;;;;;;2.92;0.60;;;;;;;10.49;87.69;99186.19;5096071;27;20084;-60
2022/10/04 02:42:39;;;;;;;2.40;0.60;;;;;;;10.54;87.53;99186.75;5099193;27;20071;-60
2022/10/04 02:46:09;;;;;;;1.60;0.60;;;;;;;10.52;87.74;99193.84;5098061;28;20519;-59
2022/10/04 02:48:57;;;;;;;1.02;0.60;;;;;;;10.46;88.21;99189.81;5037371;28;20681;-60
2022/10/04 02:52:00;;;;;;;1.10;0.52;;;;;;;10.49;88.22;99200.13;5048705;28;20119;-61
2022/10/04 02:54:54;;;;;;;2.28;0.50;;;;;;;10.44;88.72;99196.91;5055464;28;20144;-59
2022/10/04 02:57:42;;;;;;;3.72;0.68;;;;;;;10.35;89.74;99196.53;5050950;28;20551;-59
2022/10/04 03:00:29;;;;;;;1.42;0.82;;;;;;;10.31;90.27;99194.22;5056131;28;20045;-60
2022/10/04 03:03:15;;;;;;;1.45;0.80;;;;;;;10.33;90.03;99201.03;5022109;28;20072;-59
2022/10/04 03:06:07;;;;;;;2.47;0.70;;;;;;;10.33;90.19;99195.78;5050384;28;20049;-58
2022/10/04 03:09:01;;;;;;;5.57;0.77;;;;;;;10.39;89.55;99202.44;5036624;28;20148;-59
2022/10/04 03:11:49;;;;;;;1.73;0.70;;;;;;;10.32;90.01;99201.13;5047509;28;20040;-59
2022/10/04 03:14:34;;;;;;;4.57;0.73;;;;;;;10.35;89.74;99193.06;5054621;28;20036;-59
2022/10/04 03:17:19;;;;;;;1.60;0.70;;;;;;;10.38;89.74;99197.31;5046214;28;20044;-60
2022/10/04 03:20:04;;;;;;;1.42;0.50;;;;;;;10.40;89.31;99188.41;5086819;27;20399;-61
2022/10/04 03:22:54;;;;;;;1.00;0.63;;;;;;;10.46;89.24;99200.28;5106111;27;20488;-59
2022/10/04 03:25:55;;;;;;;2.40;0.50;;;;;;;10.40;89.74;99198.03;5100546;27;20039;-58
2022/10/04 03:28:40;;;;;;;3.70;0.85;;;;;;;10.40;89.75;99205.88;5113296;27;20059;-59
2022/10/04 03:31:27;;;;;;;1.92;0.65;;;;;;;10.42;89.74;99202.25;5105043;27;20051;-58
2022/10/04 03:34:18;;;;;;;1.63;0.75;;;;;;;10.41;89.64;99202.34;5122862;27;20059;-59
2022/10/04 03:37:18;;;;;;;;;;;;;;;10.36;90.25;99205.25;5105992;27;20080;-60
2022/10/04 03:40:07;;;;;;;2.78;0.55;;;;;;;10.34;90.57;99199.25;5094743;27;20002;-58
2022/10/04 03:42:53;;;;;;;1.30;0.60;;;;;;;10.38;89.96;99202.53;5104125;27;20107;-60
2022/10/04 03:45:40;;;;;;;2.97;0.60;;;;;;;10.31;90.59;99200.28;5102265;28;20335;-60
2022/10/04 03:48:29;;;;;;;3.20;0.80;;;;;;;10.36;90.26;99197.41;5094937;27;20669;-60
2022/10/04 03:51:18;;;;;;;1.23;0.60;;;;;;;10.33;89.70;99203.63;5103698;27;20125;-60
2022/10/04 03:54:06;;;;;;;0.70;0.50;;;;;;;10.28;90.60;99205.69;5105678;27;20035;-59
2022/10/04 03:56:53;;;;;;;3.13;0.50;;;;;;;10.33;89.48;99206.25;5092615;27;20086;-59
2022/10/04 03:59:38;;;;;;;1.63;0.50;;;;;;;10.23;90.37;99192.88;5097071;28;20530;-59
2022/10/04 04:02:32;;;;;;;2.70;0.85;;;;;;;10.30;89.79;99201.22;5093210;27;20054;-60
2022/10/04 04:05:36;;;;;;;1.88;0.90;;;;;;;10.26;89.94;99197.09;5080911;28;20514;-60
2022/10/04 04:08:39;;;;;;;0.98;0.45;;;;;;;10.33;89.27;99195.78;5091877;27;20117;-60
2022/10/04 04:11:26;;;;;;;2.15;0.57;;;;;;;10.36;88.95;99207.88;5094043;28;20517;-59
2022/10/04 04:14:22;;;;;;;2.00;0.85;;;;;;;10.30;89.29;99206.44;5088829;27;20479;-60
2022/10/04 04:17:26;;;;;;;3.05;0.80;;;;;;;10.36;88.92;99200.00;5092869;27;20062;-60
2022/10/04 04:20:22;;;;;;;2.70;0.68;;;;;;;10.34;89.59;99202.72;5094380;28;20055;-60
2022/10/04 04:23:21;;;;;;;1.60;0.65;;;;;;;10.28;89.98;99203.06;5076368;27;20530;-61
2022/10/04 04:26:24;;;;;;;1.45;0.60;;;;;;;10.27;90.32;99213.66;5098289;27;20048;-60
2022/10/04 04:29:30;;;;;;;2.85;0.90;;;;;;;10.26;90.35;99204.97;5110843;27;20051;-60
2022/10/04 04:32:27;;;;;;;2.45;0.88;;;;;;;10.24;90.00;99214.69;5102100;27;20095;-60
2022/10/04 04:35:22;;;;;;;1.15;0.65;;;;;;;10.22;89.99;99216.53;5101033;28;20032;-59
2022/10/04 04:38:23;;;;;;;2.05;0.60;;;;;;;10.26;89.43;99222.44;5105843;28;20575;-62
2022/10/04 04:41:09;;;;;;;1.95;0.65;;;;;;;10.26;89.86;99225.06;5107210;28;20078;-61
2022/10/04 04:43:55;;;;;;;2.58;0.90;;;;;;;10.21;89.89;99223.56;5096076;28;20036;-59
2022/10/04 04:46:42;;;;;;;2.58;0.75;;;;;;;10.15;90.45;99223.09;5103998;28;20381;-60
2022/10/04 04:49:30;;;;;;;2.53;0.70;;;;;;;10.19;90.49;99224.59;5102016;28;20044;-60
2022/10/04 04:52:20;;;;;;;1.77;0.80;;;;;;;10.27;89.89;99218.88;5097081;28;20626;-62
2022/10/04 04:55:05;;;;;;;3.05;0.85;;;;;;;10.28;89.80;99226.63;5103665;28;20642;-61
2022/10/04 04:57:54;;;;;;;2.88;0.75;;;;;;;10.27;92.91;99232.81;5092236;28;20047;-60
2022/10/04 05:00:40;;;;;;;3.67;1.15;;;;;;;10.42;90.74;99236.31;5117377;28;20394;-60
2022/10/04 05:03:25;;;;;;;1.98;0.95;;;;;;;10.46;89.88;99236.97;5099975;28;20095;-60
2022/10/04 05:06:24;;;;;;;4.75;0.85;;;;;;;10.38;90.03;99229.56;5098935;28;20475;-60
2022/10/04 05:09:25;;;;;;;2.92;0.70;;;;;;;10.35;90.35;99234.97;5098862;28;20068;-59
2022/10/04 05:12:18;;;;;;;2.37;0.97;;;;;;;10.22;90.88;99240.97;5102866;28;20040;-59
2022/10/04 05:15:03;;;;;;;3.60;1.27;;;;;;;10.27;90.37;99237.22;5113686;28;20070;-58
2022/10/04 05:17:48;;;;;;;2.67;0.93;;;;;;;10.30;90.77;99247.50;5105581;28;20036;-57
2022/10/04 05:20:33;;;;;;;1.92;0.60;;;;;;;10.32;90.62;99243.88;5102906;28;20073;-59
2022/10/04 05:23:18;;;;;;;3.30;1.17;;;;;;;10.35;90.13;99254.16;5110753;28;20440;-59
2022/10/04 05:26:09;;;;;;;4.18;0.90;;;;;;;10.25;90.46;99260.88;5115646;28;20038;-59
2022/10/04 05:28:58;;;;;;;2.40;0.90;;;;;;;10.24;90.99;99267.06;5105573;28;20036;-60
2022/10/04 05:32:02;;;;;;;2.83;0.70;;;;;;;10.28;90.49;99265.09;5114202;28;20171;-58
2022/10/04 05:34:48;;;;;;;2.25;0.77;;;;;;;10.30;90.76;99266.69;5108396;28;20046;-58
2022/10/04 05:37:44;;;;;;;1.58;0.60;;;;;;;10.28;90.87;99280.81;5092715;28;20048;-58
2022/10/04 05:40:40;;;;;;;2.95;0.80;;;;;;;10.37;90.12;99279.41;5109401;28;20035;-59
2022/10/04 05:43:34;;;;;;;2.47;0.80;;;;;;;10.39;89.94;99274.94;5095605;28;20078;-59
2022/10/04 05:46:27;;;;;;;3.15;1.00;;;;;;;10.40;90.18;99287.94;5112228;28;20085;-59
2022/10/04 05:49:14;;;;;;;2.08;0.68;;;;;;;10.48;89.84;99297.97;5114220;28;20486;-58
2022/10/04 05:52:02;;;;;;;2.63;0.68;;;;;;;10.49;90.02;99306.69;5110638;28;20042;-58
2022/10/04 05:55:25;;;;;;;3.72;0.98;;;;;;;10.45;91.66;99304.22;5087788;28;20231;-59
2022/10/04 05:58:34;;;;;;;6.25;1.15;;;;;;;10.43;92.45;99303.47;5100960;28;20032;-58
2022/10/04 06:01:35;;;;;;;4.30;1.15;;;;;;;10.42;93.11;99300.94;5111993;28;20127;-59
2022/10/04 06:04:38;;;;;;;2.55;1.02;;;;;;;10.48;93.34;99303.22;5105170;27;20588;-59
2022/10/04 06:07:38;;;;;;;4.38;0.95;;;;;;;10.55;93.01;99306.31;5099057;27;20472;-59
2022/10/04 06:10:39;;;;;;;3.20;0.63;;;;;;;10.62;91.64;99285.84;5113012;27;20059;-59
2022/10/04 06:13:52;;;;;;;3.15;1.10;;;;;;;10.75;89.99;99294.63;5115927;27;20114;-60
2022/10/04 06:16:57;;;;;;;4.85;0.82;;;;;;;10.80;90.37;99292.59;5096351;27;20047;-59
2022/10/04 06:20:00;;;;;;;4.32;0.90;;;;;;;10.92;89.27;99296.22;5105944;28;20100;-58
2022/10/04 06:22:46;;;;;;;2.30;0.70;;;;;;;10.93;89.36;99299.69;5121956;27;20073;-58
2022/10/04 06:25:51;;;;;;;3.92;0.90;;;;;;;11.15;87.90;99298.34;5109736;27;20114;-58
2022/10/04 06:28:42;;;;;;;2.42;1.00;;;;;;;11.29;87.29;99306.19;5111840;27;20043;-56
2022/10/04 06:31:39;;;;;;;3.08;0.65;;;;;;;11.30;86.52;99310.50;5110201;27;20027;-58
2022/10/04 06:34:35;;;;;;;2.15;0.70;;;;;;;11.23;86.50;99306.56;5113621;27;20474;-59
2022/10/04 06:37:20;;;;;;;3.28;1.10;;;;;;;11.14;86.51;99315.03;5116153;27;20111;-62
2022/10/04 06:40:25;;;;;;;2.90;0.95;;;;;;;11.12;87.17;99316.88;5111973;27;20036;-59
2022/10/04 06:43:16;;;;;;;3.22;1.00;;;;;;;11.18;86.76;99322.59;5098942;27;20051;-59
2022/10/04 06:46:30;;;;;;;1.87;0.77;;;;;;;11.12;87.71;99311.63;5105316;27;20068;-58
2022/10/04 06:49:33;;;;;;;2.05;0.80;;;;;;;11.19;87.29;99319.06;5097895;28;20390;-60
2022/10/04 06:52:39;;;;;;;2.10;0.50;;;;;;;11.32;86.35;99316.50;5103038;27;20127;-59
2022/10/04 06:55:48;;;;;;;3.30;0.77;;;;;;;11.28;86.69;99322.88;5122935;27;20113;-60
2022/10/04 06:58:52;;;;;;;4.50;1.38;;;;;;;11.30;86.80;99333.25;5105385;28;20048;-60
2022/10/04 07:01:52;;;;;;;2.00;0.82;;;;;;;11.32;86.49;99336.63;5095015;27;20044;-59
2022/10/04 07:04:41;;;;;;;6.85;0.80;;;;;;;11.31;86.71;99337.59;5119941;27;20070;-58
2022/10/04 07:07:36;;;;;;;1.85;0.70;;;;;;;11.66;86.20;99338.91;5096424;27;20082;-58
2022/10/04 07:10:33;;;;;;;3.45;0.70;;;;;;;11.71;86.47;99342.06;5078677;28;20130;-59
2022/10/04 07:13:27;;;;;;;4.28;0.88;;;;;;;11.48;85.93;99347.00;5118105;27;20504;-58
2022/10/04 07:16:36;;;;;;;2.28;0.77;;;;;;;11.48;86.75;99346.16;5097995;27;20039;-57
2022/10/04 07:19:30;;;;;;;3.40;0.90;;;;;;;11.28;87.15;99348.25;5093542;28;20039;-58
2022/10/04 07:22:36;;;;;;;2.05;0.80;;;;;;;11.30;87.03;99347.22;5094564;28;20550;-58
2022/10/04 07:25:49;;;;;;;1.80;0.93;;;;;;;11.35;86.38;99354.81;5107022;27;20506;-58
2022/10/04 07:31:49;;;;;;;4.35;1.00;;;;;;;11.64;86.07;99351.25;5095129;27;20040;-58
2022/10/04 07:34:45;;;;;;;3.40;1.08;;;;;;;11.67;85.64;99351.91;5081227;28;20085;-58
2022/10/04 07:37:43;;;;;;;3.97;1.05;;;;;;;11.60;85.99;99352.41;5097117;27;20059;-59
2022/10/04 07:40:43;;;;;;;6.82;0.95;;;;;;;11.45;86.70;99363.78;5093680;27;20389;-58
2022/10/04 07:43:32;;;;;;;3.90;0.88;;;;;;;11.88;86.18;99356.72;5121274;27;20054;-58
2022/10/04 07:46:36;;;;;;;2.47;1.15;;;;;;;11.81;84.95;99366.81;5106979;27;20040;-59
2022/10/04 07:49:22;;;;;;;1.58;0.57;;;;;;;11.64;86.44;99354.75;5108065;27;20079;-58
2022/10/04 07:52:25;;;;;;;3.72;0.82;;;;;;;11.79;85.37;99360.81;5105891;27;20043;-58
2022/10/04 07:55:31;;;;;;;2.65;1.00;;;;;;;11.93;84.76;99351.19;5095188;28;20036;-59
2022/10/04 07:58:42;;;;;;;2.28;1.05;;;;;;;11.95;85.13;99354.53;5103681;27;20433;-59
2022/10/04 08:01:52;;;;;;;3.53;0.93;;;;;;;12.27;83.86;99351.59;5097203;28;20070;-59
2022/10/04 08:05:05;;;;;;;3.72;1.00;;;;;;;12.39;83.72;99352.59;5088470;27;20784;-59
2022/10/04 08:08:28;;;;;;;4.00;1.15;;;;;;;12.94;81.11;99351.59;5085866;28;20290;-58
2022/10/04 08:11:32;;;;;;;2.78;1.08;;;;;;;13.18;80.25;99356.06;5072560;28;20036;-60
2022/10/04 08:14:28;;;;;;;3.03;0.93;;;;;;;13.33;79.38;99350.66;5087556;28;20114;-58
2022/10/04 08:17:30;;;;;;;3.00;0.80;;;;;;;13.36;78.92;99343.41;5102122;27;20050;-61
2022/10/04 08:20:43;;;;;;;4.80;0.70;;;;;;;13.63;77.76;99338.91;5107754;27;20368;-60
2022/10/04 08:23:36;;;;;;;3.00;1.02;;;;;;;13.47;77.77;99352.31;5100323;28;20055;-58
2022/10/04 08:26:41;;;;;;;2.70;0.80;;;;;;;13.47;77.66;99350.53;5100353;27;20044;-61
2022/10/04 08:29:50;;;;;;;3.88;1.10;;;;;;;13.78;76.41;99366.78;5100484;27;20043;-60
2022/10/04 08:33:05;;;;;;;1.65;0.80;;;;;;;13.77;76.66;99364.25;5101507;27;20063;-60
2022/10/04 08:36:14;;;;;;;3.40;1.00;;;;;;;13.54;77.44;99364.13;5089093;28;20054;-60
2022/10/04 08:38:59;;;;;;;3.22;0.80;;;;;;;13.96;75.87;99369.03;5100185;28;20032;-60
2022/10/04 08:42:00;;;;;;;4.28;0.98;;;;;;;14.13;75.17;99364.31;5111530;27;20371;-59
2022/10/04 08:45:05;;;;;;;2.25;0.95;;;;;;;14.26;75.32;99356.34;5098471;28;20092;-59
2022/10/04 08:48:21;;;;;;;5.72;1.60;;;;;;;14.61;72.85;99360.72;5102902;28;20050;-60
2022/10/04 08:51:21;;;;;;;3.60;0.90;;;;;;;14.64;73.87;99373.69;5098914;28;20479;-60
2022/10/04 08:54:27;;;;;;;7.50;1.05;;;;;;;14.68;71.88;99366.38;5108022;27;20109;-58
2022/10/04 08:57:32;;;;;;;3.15;1.10;;;;;;;14.59;72.23;99373.19;5096414;28;20048;-57
2022/10/04 09:00:27;;;;;;;3.70;0.98;;;;;;;14.45;72.76;99370.75;5098746;28;20454;-55
2022/10/04 09:03:41;;;;;;;1.42;1.02;;;;;;;14.19;74.20;99363.00;5103107;28;20124;-52
2022/10/04 09:06:51;;;;;;;3.17;1.00;;;;;;;13.92;75.45;99368.41;5091119;28;20036;-55
2022/10/04 09:10:05;;;;;;;2.53;0.90;;;;;;;14.70;73.08;99371.53;5104660;28;20067;-53
2022/10/04 09:13:02;;;;;;;1.85;0.93;;;;;;;14.95;72.29;99378.41;5102805;28;20424;-50
2022/10/04 09:15:59;;;;;;;3.35;0.70;;;;;;;15.92;68.76;99377.94;5108281;28;20043;-51
2022/10/04 09:19:08;;;;;;;1.98;0.88;;;;;;;16.62;66.04;99383.69;5105933;28;20043;-53
2022/10/04 09:21:56;;;;;;;2.85;0.77;;;;;;;16.61;65.48;99382.00;5099558;28;20459;-52
2022/10/04 09:25:00;;;;;;;3.17;0.80;;;;;;;17.49;61.75;99379.94;5111982;28;20062;-53
2022/10/04 09:27:56;;;;;;;2.97;0.98;;;;;;;16.03;64.63;99375.31;5103164;28;20067;-53
2022/10/04 09:30:41;;;;;;;4.20;0.90;;;;;;;16.17;65.12;99384.75;5105286;28;20425;-54
2022/10/04 09:33:35;;;;;;;7.05;1.08;;;;;;;15.82;65.89;99386.63;5107908;28;20176;-57
2022/10/04 09:36:43;;;;;;;2.13;0.95;;;;;;;16.69;63.21;99388.47;5105824;27;20077;-59
2022/10/04 09:39:38;;;;;;;2.20;1.00;;;;;;;17.25;61.62;99383.72;5099525;28;20037;-54
2022/10/04 09:42:58;;;;;;;2.17;0.85;;;;;;;17.53;60.10;99391.09;5117881;27;20042;-51
2022/10/04 09:46:03;;;;;;;2.38;0.82;;;;;;;18.06;58.44;99384.63;5102237;28;20088;-60
2022/10/04 09:49:05;;;;;;;3.65;1.10;;;;;;;18.69;56.20;99390.47;5112235;27;20134;-52
2022/10/04 09:51:56;;;;;;;3.25;1.00;;;;;;;18.11;57.50;99389.50;5099376;28;20472;-54
2022/10/04 09:55:04;;;;;;;3.22;0.90;;;;;;;17.06;60.71;99395.91;5106993;27;20032;-50
2022/10/04 09:58:16;;;;;;;4.35;1.13;;;;;;;16.08;67.62;99396.06;5110327;27;20502;-52
2022/10/04 10:01:21;;;;;;;3.45;1.00;;;;;;;16.22;65.24;99394.94;5105941;28;20067;-54
2022/10/04 10:04:27;;;;;;;3.50;1.00;;;;;;;16.59;63.22;99394.53;5101811;27;20144;-52
2022/10/04 10:07:24;;;;;;;2.88;0.50;;;;;;;16.86;62.26;99398.44;5104334;27;20394;-52
2022/10/04 10:14:05;;;;;;;4.53;0.98;;;;;;;15.87;66.24;99407.38;5111975;27;20095;-56
2022/10/04 10:17:13;;;;;;;4.28;1.02;;;;;;;15.92;66.84;99407.88;5117415;27;20549;-55
2022/10/04 10:20:38;;;;;;;3.22;0.90;;;;;;;15.45;67.79;99415.97;5120099;27;20035;-54
2022/10/04 10:23:41;;;;;;;5.93;1.13;;;;;;;15.20;68.13;99416.09;5031780;28;20943;-53
2022/10/04 10:26:46;;;;;;;3.95;1.13;;;;;;;15.27;69.93;99417.31;5050282;28;20381;-52
2022/10/04 10:29:55;;;;;;;4.82;1.75;;;;;;;15.48;68.93;99421.88;5053904;28;20139;-51
2022/10/04 10:32:45;;;;;;;3.25;1.73;;;;;;;16.20;66.21;99418.88;5050473;28;20122;-53
2022/10/04 10:36:10;;;;;;;6.35;0.90;;;;;;;17.33;62.97;99428.09;5052193;28;20179;-54
2022/10/04 10:39:16;;;;;;;1.55;0.70;;;;;;;16.94;64.67;99431.34;5051529;28;20362;-53
2022/10/04 10:42:05;;;;;;;5.93;1.52;;;;;;;16.19;66.43;99426.91;5041885;28;20171;-52
2022/10/04 10:45:14;;;;;;;3.95;0.93;;;;;;;16.40;65.03;99423.47;5035736;28;20041;-48
2022/10/04 10:48:09;;;;;;;4.70;1.38;;;;;;;17.01;64.51;99421.09;5048864;28;20349;-53
2022/10/04 10:51:09;;;;;;;3.05;1.15;;;;;;;18.36;58.56;99419.09;5053982;28;20076;-54
2022/10/04 10:54:12;;;;;;;2.80;1.02;;;;;;;18.44;58.15;99421.91;5050011;28;20044;-51
2022/10/04 10:57:40;;;;;;;4.80;1.02;;;;;;;17.94;61.96;99423.66;5058921;28;20076;-50
2022/10/04 11:00:58;;;;;;;5.70;0.80;;;;;;;18.72;56.93;99415.84;5098301;27;20514;-55
2022/10/04 11:04:17;;;;;;;2.45;0.50;;;;;;;18.52;56.80;99423.88;5110974;27;20087;-56
2022/10/04 11:07:19;;;;;;;4.07;0.90;;;;;;;17.60;59.10;99416.91;5104171;27;20123;-56
2022/10/04 11:10:26;;;;;;;3.40;0.65;;;;;;;16.98;60.70;99430.97;5091404;27;20040;-67
2022/10/04 11:13:26;;;;;;;2.85;0.90;;;;;;;17.39;59.32;99424.91;5109992;27;20136;-58
2022/10/04 11:16:46;;;;;;;2.47;0.75;;;;;;;16.44;60.80;99425.72;5091814;27;20071;-55
2022/10/04 11:19:49;;;;;;;5.93;0.80;;;;;;;16.69;60.18;99412.25;5116694;27;20563;-52
2022/10/04 11:22:52;;;;;;;2.10;1.00;;;;;;;17.11;59.51;99422.84;5105182;27;20035;-56
2022/10/04 11:25:44;;;;;;;2.63;0.52;;;;;;;16.95;60.40;99417.16;5099924;27;20065;-56
2022/10/04 11:28:38;;;;;;;2.15;0.77;;;;;;;16.50;60.91;99416.44;5110527;27;20167;-55
2022/10/04 11:31:41;;;;;;;6.00;1.27;;;;;;;16.83;60.75;99417.22;5107327;27;20114;-51
2022/10/04 11:34:48;;;;;;;2.58;1.15;;;;;;;17.05;58.85;99419.84;5096419;27;20501;-49
2022/10/04 11:37:54;;;;;;;2.47;0.80;;;;;;;16.99;58.35;99413.25;5095156;28;20063;-53
2022/10/04 11:41:06;;;;;;;3.17;0.90;;;;;;;17.44;55.99;99416.56;5099565;27;20036;-56
2022/10/04 11:44:15;;;;;;;1.75;0.90;;;;;;;17.20;59.27;99417.72;5102713;27;20058;-53
2022/10/04 11:47:17;;;;;;;3.83;0.80;;;;;;;17.47;56.64;99421.59;5108728;27;20049;-56
2022/10/04 11:50:26;;;;;;;3.10;0.68;;;;;;;17.16;57.40;99427.75;5104903;27;20039;-54
2022/10/04 11:53:33;;;;;;;1.58;0.60;;;;;;;16.88;59.33;99419.47;5112751;27;20088;-53
2022/10/04 11:56:39;;;;;;;1.02;0.45;;;;;;;17.01;57.83;99416.63;5100822;27;20044;-54
2022/10/04 11:59:42;;;;;;;2.05;0.85;;;;;;;17.70;56.25;99418.72;5118238;27;20122;-50
2022/10/04 12:02:39;;;;;;;2.17;0.77;;;;;;;16.85;56.69;99410.00;5109077;27;20043;-51
2022/10/04 12:05:48;;;;;;;1.90;0.90;;;;;;;16.52;56.78;99413.69;5115758;27;20039;-54
2022/10/04 12:08:51;;;;;;;1.52;0.75;;;;;;;16.21;58.40;99414.41;5122471;27;20047;-53
2022/10/04 12:15:12;;;;;;;2.40;0.65;;;;;;;15.94;59.60;99408.59;5119669;27;20449;-54
2022/10/04 12:18:25;;;;;;;3.45;0.60;;;;;;;16.40;58.57;99405.81;5101378;28;20541;-53
2022/10/04 12:21:34;;;;;;;3.85;0.70;;;;;;;15.98;59.50;99419.75;5091507;28;20127;-51
2022/10/04 12:24:25;;;;;;;2.03;0.65;;;;;;;16.07;60.49;99411.09;5115854;27;20043;-52
2022/10/04 12:27:47;;;;;;;2.17;0.80;;;;;;;15.77;61.35;99415.22;5103804;27;20049;-55
2022/10/04 12:30:52;;;;;;;4.25;1.52;;;;;;;15.65;62.03;99417.06;5102143;27;20050;-53
2022/10/04 12:33:49;;;;;;;2.88;0.75;;;;;;;15.39;64.63;99417.31;5097586;27;20100;-55
2022/10/04 12:36:58;;;;;;;6.07;0.90;;;;;;;15.73;63.66;99409.34;5097341;28;20141;-50
2022/10/04 12:40:02;;;;;;;2.10;0.70;;;;;;;15.42;65.69;99419.72;5103086;27;20035;-50
2022/10/04 12:43:05;;;;;;;1.80;0.75;;;;;;;15.77;63.97;99415.22;5107366;27;20051;-50
2022/10/04 12:45:56;;;;;;;2.72;0.93;;;;;;;15.51;64.62;99415.50;5098403;28;20067;-49
2022/10/04 12:49:03;;;;;;;1.20;0.80;;;;;;;15.47;64.87;99422.81;5098675;28;20083;-49
2022/10/04 12:52:02;;;;;;;3.97;0.98;;;;;;;15.47;64.46;99432.56;5098451;28;20089;-53
2022/10/04 12:54:57;;;;;;;2.88;0.80;;;;;;;15.99;63.43;99424.09;5100484;28;20054;-51
2022/10/04 12:57:51;;;;;;;2.88;1.00;;;;;;;16.65;60.30;99422.25;5099848;28;20108;-50
2022/10/04 13:00:41;;;;;;;2.90;0.68;;;;;;;16.74;59.48;99418.00;5103710;28;20048;-51
2022/10/04 13:03:42;;;;;;;2.80;1.00;;;;;;;16.50;58.99;99421.72;5106516;28;20047;-52
2022/10/04 13:06:42;;;;;;;2.37;0.93;;;;;;;16.46;59.09;99422.97;5100819;28;20043;-52
2022/10/04 13:09:45;;;;;;;3.70;0.88;;;;;;;16.82;57.15;99425.28;5098520;28;20104;-51
2022/10/04 13:12:58;;;;;;;2.95;1.10;;;;;;;16.77;57.38;99419.53;5113448;27;20492;-52
2022/10/04 13:15:56;;;;;;;1.58;0.73;;;;;;;16.95;56.62;99419.78;5124798;27;20114;-54
2022/10/04 13:19:05;;;;;;;1.13;0.57;;;;;;;18.01;53.03;99420.47;5104309;27;20085;-52
2022/10/04 13:22:17;;;;;;;1.85;0.70;;;;;;;17.41;54.27;99420.31;5115325;27;20049;-52
2022/10/04 13:25:34;;;;;;;2.15;0.70;;;;;;;16.70;56.35;99414.78;5108077;27;20069;-54
2022/10/04 13:28:41;;;;;;;1.45;0.68;;;;;;;16.92;56.59;99425.34;5096684;27;20353;-52
2022/10/04 13:31:33;;;;;;;1.38;0.70;;;;;;;16.56;56.41;99423.03;5120433;27;20036;-54
2022/10/04 13:34:35;;;;;;;2.80;0.98;;;;;;;16.44;59.07;99430.16;5103901;27;20078;-53
2022/10/04 13:37:38;;;;;;;2.92;1.08;;;;;;;16.40;57.43;99428.75;5099787;27;20043;-50
2022/10/04 13:40:35;;;;;;;4.10;1.08;;;;;;;16.06;56.82;99424.44;5113349;27;20036;-49
2022/10/04 13:43:47;;;;;;;3.22;1.17;;;;;;;15.85;56.99;99418.09;5113038;27;20081;-53
2022/10/04 13:47:06;;;;;;;2.92;0.70;;;;;;;17.27;55.76;99433.94;5115199;27;20093;-49
2022/10/04 13:50:32;;;;;;;3.13;0.73;;;;;;;18.90;51.26;99426.56;5107853;27;20117;-48
2022/10/04 13:56:38;;;;;;;1.58;0.95;;;;;;;19.07;49.77;99425.00;5068280;28;20456;-52
2022/10/04 13:59:51;;;;;;;4.40;2.28;;;;;;;18.25;53.25;99432.53;5069507;28;20041;-50
2022/10/04 14:03:18;;;;;;;2.47;1.10;;;;;;;20.00;48.71;99426.94;5070588;28;20127;-49
2022/10/04 14:06:15;;;;;;;4.28;2.10;;;;;;;20.44;46.89;99434.22;5063564;28;20436;-53
2022/10/04 14:09:09;;;;;;;8.05;2.88;;;;;;;20.37;47.55;99433.16;5069024;28;20044;-54
2022/10/04 14:12:12;;;;;;;5.53;1.33;;;;;;;20.43;45.86;99435.22;5068690;28;20484;-53
2022/10/04 14:15:25;;;;;;;1.13;0.65;;;;;;;19.27;46.67;99437.41;5069639;28;20051;-52
2022/10/04 14:18:40;;;;;;;1.88;0.80;;;;;;;19.58;46.86;99437.97;5055472;28;20083;-49